Time;durP1;ratioP1;P1;durP2;ratioP2;P2;SDS_P1;SDS_P2;PMS_P1;PMS_P2;Temp;Humidity;BMP_temperature;BMP_pressure;BME280_temperature;BME280_humidity;BME280_pressure;Samples;Min_cycle;Max_cycle;Signal;HPM_P1;HPM_P2
2021/06/22 00:01:45;;;;;;;5.38;2.60;;;18.70;68.80;;;;;;5116015;28;20065;-70
2021/06/22 00:04:11;;;;;;;8.57;3.13;;;18.70;68.70;;;;;;5117852;28;20082;-70
2021/06/22 00:06:37;;;;;;;6.32;3.63;;;18.70;68.50;;;;;;5117353;28;20101;-70
2021/06/22 00:09:03;;;;;;;7.13;3.85;;;18.60;68.20;;;;;;5117350;28;20417;-69
2021/06/22 00:11:29;;;;;;;9.02;4.40;;;18.60;68.40;;;;;;5117065;28;20051;-69
2021/06/22 00:13:55;;;;;;;8.05;4.93;;;18.60;68.10;;;;;;5117432;28;20350;-69
2021/06/22 00:16:21;;;;;;;8.77;5.20;;;18.60;68.00;;;;;;5117498;28;20040;-70
2021/06/22 00:18:46;;;;;;;7.90;5.55;;;18.60;67.80;;;;;;5117475;28;20050;-70
2021/06/22 00:21:12;;;;;;;8.70;5.72;;;18.60;67.90;;;;;;5117106;28;20462;-69
2021/06/22 00:23:38;;;;;;;10.00;6.43;;;18.60;68.00;;;;;;5117540;28;20126;-70
2021/06/22 00:26:04;;;;;;;7.40;6.00;;;18.50;67.70;;;;;;5117347;28;20430;-70
2021/06/22 00:28:29;;;;;;;9.23;6.72;;;18.50;67.60;;;;;;5117389;28;20063;-70
2021/06/22 00:30:56;;;;;;;10.02;6.95;;;18.50;67.50;;;;;;5117281;28;20052;-69
2021/06/22 00:33:22;;;;;;;7.50;6.55;;;18.50;67.60;;;;;;5097620;28;20473;-69
2021/06/22 00:35:48;;;;;;;9.15;7.90;;;18.50;67.60;;;;;;5097247;28;20040;-67
2021/06/22 00:38:13;;;;;;;11.25;8.10;;;18.50;67.70;;;;;;5095411;28;20109;-68
2021/06/22 00:40:39;;;;;;;11.18;7.57;;;18.50;67.40;;;;;;5096609;28;20044;-67
2021/06/22 00:43:05;;;;;;;9.38;8.20;;;18.50;67.70;;;;;;5096543;28;20044;-67
2021/06/22 00:45:33;;;;;;;10.10;7.95;;;18.50;67.50;;;;;;5096170;28;20364;-67
2021/06/22 00:47:59;;;;;;;9.15;7.80;;;18.50;67.50;;;;;;5108419;28;20043;-68
2021/06/22 00:50:25;;;;;;;10.52;8.45;;;18.50;67.70;;;;;;5116754;28;20044;-67
2021/06/22 00:52:51;;;;;;;10.65;8.13;;;18.50;67.40;;;;;;5116247;28;20039;-67
2021/06/22 00:55:31;;;;;;;9.57;8.43;;;18.50;67.50;;;;;;5116915;28;20427;-68
2021/06/22 00:57:58;;;;;;;9.60;8.32;;;18.50;67.40;;;;;;5116477;28;20461;-67
2021/06/22 01:00:24;;;;;;;9.23;7.68;;;18.50;67.40;;;;;;5116595;28;20055;-67
2021/06/22 01:02:52;;;;;;;11.90;8.48;;;18.50;67.30;;;;;;5116384;28;20059;-69
2021/06/22 01:05:18;;;;;;;10.70;8.05;;;18.50;67.50;;;;;;5116193;28;20047;-68
2021/06/22 01:07:43;;;;;;;10.35;8.10;;;18.50;67.40;;;;;;5116451;28;20051;-67
2021/06/22 01:10:10;;;;;;;12.68;8.50;;;18.50;67.50;;;;;;5116446;28;20066;-68
2021/06/22 01:12:36;;;;;;;10.60;8.65;;;18.50;67.40;;;;;;5115447;28;20048;-67
2021/06/22 01:15:20;;;;;;;12.77;8.20;;;18.50;67.40;;;;;;5116064;28;20047;-67
2021/06/22 01:17:46;;;;;;;10.25;7.85;;;18.50;67.20;;;;;;5105838;28;20044;-68
2021/06/22 01:20:14;;;;;;;10.55;7.70;;;18.50;67.60;;;;;;5095350;28;20078;-68
2021/06/22 01:22:46;;;;;;;10.68;7.95;;;18.50;67.50;;;;;;5097039;28;20044;-67
2021/06/22 01:25:13;;;;;;;10.75;8.75;;;18.50;67.40;;;;;;5095822;28;20039;-67
2021/06/22 01:27:39;;;;;;;12.25;8.55;;;18.50;67.70;;;;;;5095733;28;20043;-67
2021/06/22 01:30:06;;;;;;;12.82;8.00;;;18.50;67.70;;;;;;5095584;28;20105;-68
2021/06/22 01:32:32;;;;;;;14.18;8.63;;;18.50;67.70;;;;;;5095441;28;20048;-67
2021/06/22 01:34:59;;;;;;;11.07;8.43;;;18.50;67.70;;;;;;5095994;28;20512;-67
2021/06/22 01:37:25;;;;;;;10.13;8.30;;;18.50;67.70;;;;;;5095516;28;20063;-67
2021/06/22 01:39:51;;;;;;;9.35;8.05;;;18.50;67.80;;;;;;5096140;28;20079;-67
2021/06/22 01:42:16;;;;;;;12.80;8.15;;;18.50;67.80;;;;;;5095532;28;20535;-67
2021/06/22 01:44:46;;;;;;;12.00;8.80;;;18.50;67.80;;;;;;5096101;28;20076;-68
2021/06/22 01:47:12;;;;;;;10.10;8.23;;;18.50;67.80;;;;;;5096414;28;20048;-68
2021/06/22 01:49:38;;;;;;;8.48;7.63;;;18.50;67.90;;;;;;5095802;28;20091;-68
2021/06/22 01:52:04;;;;;;;9.75;8.38;;;18.50;67.90;;;;;;5095344;28;20139;-68
2021/06/22 01:54:30;;;;;;;9.10;7.72;;;18.50;68.00;;;;;;5095259;28;20056;-67
2021/06/22 01:56:58;;;;;;;9.25;8.20;;;18.50;68.00;;;;;;5095403;28;20058;-67
2021/06/22 01:59:24;;;;;;;10.68;9.23;;;18.50;68.10;;;;;;5094939;28;20086;-68
2021/06/22 02:01:50;;;;;;;8.98;8.07;;;18.50;68.10;;;;;;5095840;28;20139;-68
2021/06/22 02:04:18;;;;;;;10.93;8.57;;;18.50;68.00;;;;;;5095698;28;20056;-67
2021/06/22 02:06:44;;;;;;;10.43;8.57;;;18.50;68.10;;;;;;5095183;28;20147;-68
2021/06/22 02:09:10;;;;;;;11.45;8.43;;;18.40;68.00;;;;;;5095450;28;20474;-67
2021/06/22 02:11:36;;;;;;;9.68;8.25;;;18.40;67.90;;;;;;5095353;28;20082;-69
2021/06/22 02:14:05;;;;;;;10.30;8.63;;;18.40;68.00;;;;;;5095406;28;20052;-68
2021/06/22 02:16:31;;;;;;;9.65;8.43;;;18.40;68.00;;;;;;5096401;28;20040;-68
2021/06/22 02:18:58;;;;;;;10.95;8.15;;;18.40;68.00;;;;;;5115475;28;20044;-67
2021/06/22 02:21:25;;;;;;;10.70;8.57;;;18.40;67.70;;;;;;5115621;28;20097;-68
2021/06/22 02:23:51;;;;;;;10.40;8.70;;;18.30;67.90;;;;;;5115938;28;20457;-68
2021/06/22 02:26:16;;;;;;;11.00;9.00;;;18.40;67.90;;;;;;5115934;28;20122;-68
2021/06/22 02:28:42;;;;;;;9.80;7.93;;;18.40;67.90;;;;;;5120127;28;20073;-68
2021/06/22 02:31:08;;;;;;;9.52;8.05;;;18.40;67.80;;;;;;5119036;28;20071;-67
2021/06/22 02:33:34;;;;;;;9.88;8.38;;;18.30;67.80;;;;;;5119253;28;20126;-67
2021/06/22 02:36:00;;;;;;;11.00;8.38;;;18.30;67.60;;;;;;5119826;28;20126;-68
2021/06/22 02:38:26;;;;;;;15.40;8.50;;;18.30;67.60;;;;;;5119394;28;20082;-67
2021/06/22 02:40:53;;;;;;;10.82;8.55;;;18.30;67.70;;;;;;5119157;28;20050;-67
2021/06/22 02:43:18;;;;;;;11.63;8.50;;;18.30;67.70;;;;;;5119149;28;20047;-67
2021/06/22 02:45:44;;;;;;;11.52;8.20;;;18.30;67.50;;;;;;5119104;28;20374;-67
2021/06/22 02:48:11;;;;;;;9.45;8.05;;;18.30;67.40;;;;;;5100685;28;20082;-67
2021/06/22 02:50:39;;;;;;;11.50;8.57;;;18.30;67.50;;;;;;5098557;28;20052;-67
2021/06/22 02:53:07;;;;;;;12.45;8.50;;;18.30;67.50;;;;;;5098569;28;20098;-67
2021/06/22 02:55:33;;;;;;;12.80;8.02;;;18.30;67.30;;;;;;5098561;28;20158;-68
2021/06/22 02:57:59;;;;;;;14.77;8.98;;;18.20;67.40;;;;;;5098235;28;20331;-67
2021/06/22 03:00:29;;;;;;;8.90;7.85;;;18.30;67.30;;;;;;5099551;28;20094;-67
2021/06/22 03:02:56;;;;;;;11.82;8.15;;;18.30;67.20;;;;;;5098312;28;20059;-68
2021/06/22 03:05:23;;;;;;;12.15;8.48;;;18.20;66.90;;;;;;5098448;28;20058;-68
2021/06/22 03:07:49;;;;;;;10.90;8.40;;;18.20;66.90;;;;;;5098397;28;20404;-67
2021/06/22 03:10:19;;;;;;;14.35;10.02;;;18.10;67.20;;;;;;5098409;28;20051;-68
2021/06/22 03:12:46;;;;;;;10.82;8.52;;;18.10;67.10;;;;;;5098510;28;20055;-67
2021/06/22 03:15:14;;;;;;;12.13;9.02;;;18.20;67.80;;;;;;5098190;28;20066;-67
2021/06/22 03:17:39;;;;;;;10.23;8.35;;;18.10;66.90;;;;;;5111591;28;20048;-68
2021/06/22 03:20:07;;;;;;;12.93;9.27;;;18.10;66.80;;;;;;5118366;28;20399;-68
2021/06/22 03:22:33;;;;;;;12.15;8.68;;;18.10;66.70;;;;;;5118677;28;20051;-68
2021/06/22 03:24:59;;;;;;;11.32;8.10;;;18.10;66.70;;;;;;5118195;28;20047;-67
2021/06/22 03:27:25;;;;;;;13.52;9.80;;;18.10;66.60;;;;;;5118429;28;20116;-67
2021/06/22 03:29:51;;;;;;;11.52;9.40;;;18.00;66.50;;;;;;5118607;28;20495;-68
2021/06/22 03:32:17;;;;;;;11.60;9.40;;;18.00;66.40;;;;;;5118226;28;20071;-68
2021/06/22 03:34:43;;;;;;;13.32;9.85;;;17.90;66.20;;;;;;5118143;28;20079;-67
2021/06/22 03:37:09;;;;;;;11.02;8.57;;;18.00;66.40;;;;;;5117734;28;20064;-68
2021/06/22 03:39:35;;;;;;;12.57;9.57;;;17.90;66.10;;;;;;5118245;28;20096;-68
2021/06/22 03:42:02;;;;;;;12.80;9.30;;;18.00;66.30;;;;;;5118385;28;20046;-67
2021/06/22 03:44:28;;;;;;;14.48;9.32;;;18.00;66.30;;;;;;5117917;28;20446;-67
2021/06/22 03:46:54;;;;;;;11.70;9.02;;;17.90;66.10;;;;;;5110650;28;20074;-68
2021/06/22 03:49:20;;;;;;;13.40;9.13;;;18.00;66.30;;;;;;5097518;28;20048;-68
2021/06/22 03:51:46;;;;;;;13.52;9.52;;;17.90;65.80;;;;;;5097702;28;20040;-68
2021/06/22 03:54:11;;;;;;;13.13;8.90;;;17.90;66.30;;;;;;5096298;28;20113;-67
2021/06/22 03:56:37;;;;;;;17.45;8.90;;;18.00;66.30;;;;;;5114542;28;20040;-67
2021/06/22 03:59:03;;;;;;;12.55;9.45;;;18.00;66.40;;;;;;5117776;28;20055;-67
2021/06/22 04:01:29;;;;;;;10.48;8.93;;;18.00;66.10;;;;;;5114839;28;20044;-67
2021/06/22 04:03:55;;;;;;;10.15;8.63;;;18.00;65.90;;;;;;5097236;28;20359;-68
2021/06/22 04:06:23;;;;;;;9.32;8.32;;;18.00;66.40;;;;;;5096938;28;20051;-68
2021/06/22 04:08:49;;;;;;;13.93;9.15;;;18.00;66.80;;;;;;5108053;28;20386;-67
2021/06/22 04:11:15;;;;;;;11.88;8.93;;;18.10;66.50;;;;;;5097577;28;20056;-68
2021/06/22 04:13:41;;;;;;;13.82;8.10;;;18.00;66.20;;;;;;5102804;28;20040;-69
2021/06/22 04:16:07;;;;;;;12.95;8.30;;;18.00;66.10;;;;;;5117501;28;20058;-70
2021/06/22 04:18:33;;;;;;;12.38;8.75;;;18.00;66.00;;;;;;5117588;28;20043;-69
2021/06/22 04:21:00;;;;;;;10.70;7.78;;;18.00;66.20;;;;;;5117203;28;20044;-69
2021/06/22 04:23:26;;;;;;;10.75;7.53;;;18.00;66.10;;;;;;5117845;28;20047;-69
2021/06/22 04:25:52;;;;;;;10.75;8.18;;;18.10;66.30;;;;;;5102691;28;20399;-68
2021/06/22 04:28:18;;;;;;;12.82;9.23;;;18.00;66.20;;;;;;5096766;28;20105;-68
2021/06/22 04:30:45;;;;;;;9.18;6.63;;;18.10;67.00;;;;;;5096882;28;20193;-68
2021/06/22 04:33:11;;;;;;;10.57;8.10;;;18.10;66.60;;;;;;5097874;28;20043;-67
2021/06/22 04:35:38;;;;;;;11.15;8.00;;;18.10;66.90;;;;;;5096574;28;20043;-68
2021/06/22 04:38:09;;;;;;;12.63;8.50;;;18.10;67.00;;;;;;5096304;28;20070;-68
2021/06/22 04:40:36;;;;;;;11.80;7.57;;;18.10;67.00;;;;;;5096268;28;20071;-69
2021/06/22 04:43:03;;;;;;;18.30;8.98;;;18.10;67.00;;;;;;5097702;28;20082;-71
2021/06/22 04:45:30;;;;;;;13.45;7.72;;;18.10;67.80;;;;;;5107348;28;20478;-70
2021/06/22 04:47:57;;;;;;;12.60;7.20;;;18.20;67.50;;;;;;5116134;28;20043;-69
2021/06/22 04:50:24;;;;;;;11.10;6.55;;;18.20;66.60;;;;;;5115791;28;20050;-70
2021/06/22 04:52:50;;;;;;;14.20;7.10;;;18.20;66.00;;;;;;5116561;28;20447;-72
2021/06/22 04:55:19;;;;;;;14.40;6.38;;;18.30;65.60;;;;;;5116939;28;20104;-73
2021/06/22 04:57:46;;;;;;;10.60;6.18;;;18.30;65.30;;;;;;5114583;28;20115;-71
2021/06/22 05:00:14;;;;;;;12.63;5.80;;;18.30;65.30;;;;;;5115373;28;20074;-70
2021/06/22 05:02:44;;;;;;;15.07;5.60;;;18.30;65.00;;;;;;5116300;28;20051;-70
2021/06/22 05:05:11;;;;;;;11.90;6.13;;;18.30;64.70;;;;;;5116094;28;20066;-70
2021/06/22 05:07:38;;;;;;;23.20;5.80;;;18.30;64.50;;;;;;5116299;28;20451;-69
2021/06/22 05:10:05;;;;;;;14.18;5.47;;;18.40;64.40;;;;;;5116201;28;20040;-69
2021/06/22 05:12:31;;;;;;;11.85;5.00;;;18.40;64.30;;;;;;5116598;28;20078;-69
2021/06/22 05:14:56;;;;;;;10.65;5.18;;;18.40;64.30;;;;;;5113559;28;20063;-69
2021/06/22 05:17:22;;;;;;;7.95;4.25;;;18.40;64.40;;;;;;5095620;28;20127;-70
2021/06/22 05:19:48;;;;;;;8.07;4.30;;;18.40;64.40;;;;;;5095516;28;20071;-69
2021/06/22 05:22:14;;;;;;;9.77;4.47;;;18.40;64.30;;;;;;5095612;28;20363;-70
2021/06/22 05:24:40;;;;;;;7.63;4.78;;;18.40;64.40;;;;;;5095602;28;20055;-70
2021/06/22 05:27:06;;;;;;;7.55;4.18;;;18.40;64.40;;;;;;5095795;28;20044;-70
2021/06/22 05:29:32;;;;;;;9.82;4.43;;;18.40;64.40;;;;;;5094528;28;20036;-70
2021/06/22 05:31:58;;;;;;;13.32;4.45;;;18.40;64.40;;;;;;5095380;28;20425;-72
2021/06/22 05:34:24;;;;;;;10.18;4.30;;;18.40;64.30;;;;;;5095322;28;20062;-72
2021/06/22 05:36:51;;;;;;;8.02;4.43;;;18.40;64.30;;;;;;5095317;28;20405;-76
2021/06/22 05:39:17;;;;;;;13.48;4.18;;;18.40;64.30;;;;;;5095337;28;20036;-70
2021/06/22 05:41:42;;;;;;;7.95;3.92;;;18.40;64.50;;;;;;5095314;28;20461;-69
2021/06/22 05:44:08;;;;;;;7.50;4.00;;;18.40;64.50;;;;;;5095435;28;20123;-70
2021/06/22 05:46:34;;;;;;;10.02;4.15;;;18.40;64.30;;;;;;5109278;28;20100;-70
2021/06/22 05:49:00;;;;;;;9.23;3.75;;;18.40;64.30;;;;;;5115657;28;20048;-69
2021/06/22 05:51:26;;;;;;;6.13;3.63;;;18.40;64.30;;;;;;5115485;28;20070;-69
2021/06/22 05:53:52;;;;;;;8.65;3.88;;;18.40;64.40;;;;;;5110755;28;20455;-69
2021/06/22 05:56:18;;;;;;;8.48;3.50;;;18.40;64.20;;;;;;5106976;28;20133;-69
2021/06/22 05:58:44;;;;;;;9.07;4.15;;;18.40;64.20;;;;;;5115394;28;20423;-70
2021/06/22 06:01:10;;;;;;;7.80;3.47;;;18.40;64.00;;;;;;5099978;28;20118;-71
2021/06/22 06:03:36;;;;;;;6.80;3.30;;;18.40;63.90;;;;;;5102056;28;20059;-71
2021/06/22 06:06:03;;;;;;;7.40;3.65;;;18.50;63.80;;;;;;5102120;28;20419;-71
2021/06/22 06:08:33;;;;;;;17.98;4.13;;;18.40;63.90;;;;;;5101465;28;20070;-69
2021/06/22 06:11:00;;;;;;;9.10;3.45;;;18.50;63.90;;;;;;5101926;28;20447;-71
2021/06/22 06:13:36;;;;;;;18.98;3.85;;;18.50;64.00;;;;;;5101668;28;20056;-71
2021/06/22 06:16:03;;;;;;;13.73;3.85;;;18.50;64.00;;;;;;5101865;28;20066;-71
2021/06/22 06:18:29;;;;;;;16.95;3.88;;;18.60;64.10;;;;;;5101546;28;20376;-73
2021/06/22 06:20:57;;;;;;;10.23;3.55;;;18.50;64.00;;;;;;5103677;28;20181;-71
2021/06/22 06:23:26;;;;;;;12.43;3.63;;;18.50;63.90;;;;;;5111652;28;20044;-70
2021/06/22 06:25:52;;;;;;;12.60;3.63;;;18.50;63.90;;;;;;5101606;28;20456;-70
2021/06/22 06:28:22;;;;;;;9.05;3.40;;;18.50;63.90;;;;;;5119636;28;20137;-71
2021/06/22 06:30:48;;;;;;;10.07;3.20;;;18.50;63.80;;;;;;5122479;28;20040;-70
2021/06/22 06:33:14;;;;;;;14.30;4.22;;;18.50;63.80;;;;;;5119264;28;20454;-71
2021/06/22 06:35:40;;;;;;;11.68;3.88;;;18.50;64.00;;;;;;5101516;28;20048;-71
2021/06/22 06:38:08;;;;;;;8.25;3.80;;;18.50;64.10;;;;;;5101932;28;20044;-68
2021/06/22 06:40:35;;;;;;;10.95;3.88;;;18.50;64.20;;;;;;5102870;28;20119;-70
2021/06/22 06:43:02;;;;;;;7.45;3.78;;;18.50;64.30;;;;;;5101659;28;20047;-72
2021/06/22 06:45:29;;;;;;;6.88;3.15;;;18.50;64.40;;;;;;5101674;28;20044;-73
2021/06/22 06:47:56;;;;;;;11.10;3.70;;;18.50;64.60;;;;;;5100572;28;20371;-72
2021/06/22 06:50:22;;;;;;;10.13;3.47;;;18.50;64.70;;;;;;5101613;28;20048;-73
2021/06/22 06:52:49;;;;;;;6.45;3.45;;;18.50;65.00;;;;;;5101771;28;20076;-77
2021/06/22 06:55:25;;;;;;;8.85;3.75;;;18.50;64.80;;;;;;5101539;28;20051;-76
2021/06/22 06:58:02;;;;;;;11.15;3.22;;;18.60;64.80;;;;;;5101385;28;20044;-72
2021/06/22 07:00:30;;;;;;;10.30;3.88;;;18.60;64.90;;;;;;5100907;28;20411;-71
2021/06/22 07:02:56;;;;;;;13.13;3.45;;;18.60;65.00;;;;;;5103745;28;20348;-72
2021/06/22 07:05:22;;;;;;;13.40;3.70;;;18.60;64.80;;;;;;5121659;28;20591;-73
2021/06/22 07:07:48;;;;;;;7.60;3.38;;;18.60;64.90;;;;;;5122116;28;20122;-72
2021/06/22 07:10:15;;;;;;;8.25;3.22;;;18.60;64.70;;;;;;5121715;28;20039;-73
2021/06/22 07:12:42;;;;;;;8.13;3.70;;;18.60;64.50;;;;;;5119360;27;20593;-74
2021/06/22 07:15:09;;;;;;;8.50;3.53;;;18.60;64.50;;;;;;5118975;28;20055;-71
2021/06/22 07:17:35;;;;;;;8.85;3.22;;;18.60;65.10;;;;;;5116723;28;20064;-73
2021/06/22 07:20:03;;;;;;;6.75;2.97;;;18.60;64.30;;;;;;5106808;28;20339;-74
2021/06/22 07:22:30;;;;;;;8.93;3.65;;;18.50;64.10;;;;;;5118419;28;20039;-75
2021/06/22 07:24:55;;;;;;;8.05;3.15;;;18.50;64.20;;;;;;5102447;28;20365;-75
2021/06/22 07:27:21;;;;;;;10.38;3.40;;;18.50;64.10;;;;;;5097977;28;20055;-72
2021/06/22 07:29:47;;;;;;;9.13;3.50;;;18.50;64.20;;;;;;5097487;28;20044;-71
2021/06/22 07:32:13;;;;;;;11.77;3.25;;;18.50;64.20;;;;;;5097750;28;20048;-72
2021/06/22 07:34:45;;;;;;;5.28;3.20;;;18.50;64.20;;;;;;5097735;28;20052;-75
2021/06/22 07:37:18;;;;;;;6.10;2.67;;;18.50;64.20;;;;;;5113961;28;20100;-75
2021/06/22 07:39:48;;;;;;;10.45;3.80;;;18.50;63.60;;;;;;5118083;28;20040;-74
2021/06/22 07:42:14;;;;;;;6.82;3.65;;;18.50;63.50;;;;;;5117493;28;20049;-75
2021/06/22 07:44:40;;;;;;;7.07;3.72;;;18.50;63.90;;;;;;5117720;28;20408;-74
2021/06/22 07:47:06;;;;;;;10.02;3.90;;;18.50;63.90;;;;;;5118087;28;20093;-75
2021/06/22 07:49:31;;;;;;;8.88;3.42;;;18.50;64.00;;;;;;5118158;28;20039;-76
2021/06/22 07:51:57;;;;;;;8.98;3.42;;;18.50;64.00;;;;;;5117744;28;20055;-75
2021/06/22 07:54:23;;;;;;;13.13;4.70;;;18.50;64.00;;;;;;5117657;28;20461;-76
2021/06/22 07:56:49;;;;;;;8.88;3.22;;;18.50;63.90;;;;;;5109731;28;20097;-75
2021/06/22 07:59:16;;;;;;;8.88;3.55;;;18.50;63.90;;;;;;5115233;28;20359;-75
2021/06/22 08:01:42;;;;;;;10.02;3.72;;;18.50;63.90;;;;;;5115059;28;20058;-75
2021/06/22 08:04:08;;;;;;;8.98;3.72;;;18.50;63.80;;;;;;5106033;28;20040;-74
2021/06/22 08:06:34;;;;;;;10.18;4.70;;;18.60;63.70;;;;;;5118217;28;20044;-75
2021/06/22 08:09:00;;;;;;;12.05;5.20;;;18.60;63.20;;;;;;5106273;28;20077;-74
2021/06/22 08:11:25;;;;;;;8.50;4.05;;;18.60;62.40;;;;;;5115658;28;20157;-76
2021/06/22 08:13:51;;;;;;;10.25;4.75;;;18.50;62.20;;;;;;5115768;28;20063;-72
2021/06/22 08:16:17;;;;;;;9.80;4.10;;;18.50;62.60;;;;;;5117452;28;20059;-72
2021/06/22 08:18:43;;;;;;;10.23;4.50;;;18.40;62.70;;;;;;5103916;28;20136;-72
2021/06/22 08:21:09;;;;;;;12.32;4.60;;;18.40;63.10;;;;;;5116963;28;20092;-73
2021/06/22 08:23:35;;;;;;;14.90;4.88;;;18.50;63.40;;;;;;5107944;28;20048;-74
2021/06/22 08:26:01;;;;;;;10.38;4.47;;;18.50;63.60;;;;;;5096151;28;20395;-73
2021/06/22 08:28:27;;;;;;;12.13;4.43;;;18.50;63.80;;;;;;5096682;28;20051;-73
2021/06/22 08:30:53;;;;;;;9.77;4.55;;;18.50;63.90;;;;;;5096704;28;20047;-73
2021/06/22 08:33:19;;;;;;;10.68;5.15;;;18.50;64.00;;;;;;5096538;28;20122;-73
2021/06/22 08:35:45;;;;;;;8.77;4.38;;;18.60;64.20;;;;;;5104501;28;20054;-73
2021/06/22 08:38:13;;;;;;;11.95;4.57;;;18.60;64.30;;;;;;5117262;28;20362;-72
2021/06/22 08:40:42;;;;;;;12.82;4.40;;;18.60;64.40;;;;;;5116668;28;20450;-73
2021/06/22 08:43:11;;;;;;;9.80;4.43;;;18.60;64.50;;;;;;5116459;28;20051;-72
2021/06/22 08:45:37;;;;;;;8.75;4.22;;;18.60;64.60;;;;;;5116731;28;20051;-73
2021/06/22 08:48:05;;;;;;;11.07;4.32;;;18.70;64.70;;;;;;5116718;28;20043;-73
2021/06/22 08:50:31;;;;;;;8.60;4.35;;;18.70;64.80;;;;;;5116603;28;20058;-73
2021/06/22 08:52:57;;;;;;;8.20;4.13;;;18.70;64.80;;;;;;5116114;28;20059;-74
2021/06/22 08:55:26;;;;;;;8.70;4.47;;;18.70;64.80;;;;;;5104641;28;20082;-73
2021/06/22 08:57:57;;;;;;;9.75;4.65;;;18.70;64.80;;;;;;5109717;28;20055;-71
2021/06/22 09:00:24;;;;;;;8.80;4.05;;;18.70;65.00;;;;;;5107633;28;20117;-73
2021/06/22 09:03:00;;;;;;;10.48;4.90;;;18.70;65.00;;;;;;5096800;28;20051;-71
2021/06/22 09:05:26;;;;;;;8.85;4.53;;;18.70;64.80;;;;;;5102433;28;20044;-73
2021/06/22 09:07:56;;;;;;;9.45;4.63;;;18.70;65.00;;;;;;5095822;28;20054;-74
2021/06/22 09:10:32;;;;;;;9.00;4.07;;;18.70;65.10;;;;;;5095737;28;20048;-73
2021/06/22 09:13:24;;;;;;;9.18;4.53;;;18.80;64.70;;;;;;5096127;28;20040;-74
2021/06/22 09:15:52;;;;;;;7.88;4.45;;;18.80;64.10;;;;;;5095755;28;20059;-73
2021/06/22 09:18:33;;;;;;;7.20;4.53;;;18.70;64.80;;;;;;5095641;28;20085;-73
2021/06/22 09:21:05;;;;;;;7.28;4.38;;;18.80;64.20;;;;;;5096038;28;20044;-74
2021/06/22 09:23:33;;;;;;;8.57;4.85;;;18.70;64.80;;;;;;5095555;28;20451;-76
2021/06/22 09:25:59;;;;;;;8.60;3.90;;;18.70;64.90;;;;;;5096099;28;20446;-74
2021/06/22 09:28:31;;;;;;;11.07;4.47;;;18.80;64.80;;;;;;5103043;28;20047;-73
2021/06/22 09:31:10;;;;;;;7.93;4.25;;;18.80;65.70;;;;;;5110920;28;20036;-72
2021/06/22 09:33:40;;;;;;;8.93;4.32;;;18.70;65.10;;;;;;5097609;28;20066;-72
2021/06/22 09:36:08;;;;;;;9.55;4.70;;;18.80;65.30;;;;;;5100095;28;20363;-76
2021/06/22 09:38:52;;;;;;;10.43;4.65;;;18.80;65.30;;;;;;5095337;28;20047;-81
2021/06/22 09:41:18;;;;;;;10.23;5.55;;;18.80;65.20;;;;;;5095204;28;20044;-73
2021/06/22 09:43:50;;;;;;;12.50;5.30;;;18.80;63.80;;;;;;5098483;28;20093;-72
2021/06/22 09:46:29;;;;;;;13.32;5.60;;;18.80;63.20;;;;;;5116119;28;20067;-73
2021/06/22 09:48:56;;;;;;;15.18;5.78;;;18.80;63.40;;;;;;5115623;28;20082;-72
2021/06/22 09:51:30;;;;;;;9.13;4.72;;;18.80;63.50;;;;;;5115771;28;20447;-72
2021/06/22 09:54:10;;;;;;;10.13;4.63;;;18.80;63.60;;;;;;5115225;28;20044;-72
2021/06/22 09:56:36;;;;;;;8.82;4.47;;;18.80;63.80;;;;;;5115770;28;20418;-71
2021/06/22 09:59:08;;;;;;;12.02;5.40;;;18.80;63.90;;;;;;5115861;28;20078;-71
2021/06/22 10:01:37;;;;;;;8.57;4.70;;;18.90;64.10;;;;;;5115509;28;20323;-72
2021/06/22 10:04:20;;;;;;;10.85;4.55;;;18.90;64.20;;;;;;5115671;28;20039;-72
2021/06/22 10:06:58;;;;;;;7.40;4.10;;;18.90;64.30;;;;;;5115883;28;20043;-72
2021/06/22 10:09:29;;;;;;;7.63;4.68;;;18.90;64.40;;;;;;5115933;28;20044;-72
2021/06/22 10:12:17;;;;;;;6.97;4.82;;;18.90;64.50;;;;;;5115128;28;20050;-72
2021/06/22 10:14:47;;;;;;;8.70;4.68;;;18.90;64.50;;;;;;5104348;28;20052;-73
2021/06/22 10:17:17;;;;;;;8.20;5.18;;;18.90;64.60;;;;;;5095446;28;20051;-72
2021/06/22 10:19:45;;;;;;;9.13;4.65;;;18.90;64.70;;;;;;5094132;28;20060;-72
2021/06/22 10:22:12;;;;;;;5.57;4.28;;;19.00;64.70;;;;;;5095164;28;20113;-72
2021/06/22 10:24:43;;;;;;;9.52;5.20;;;18.90;64.70;;;;;;5094821;28;20145;-72
2021/06/22 10:27:10;;;;;;;7.28;4.13;;;19.00;64.80;;;;;;5095380;28;20055;-72
2021/06/22 10:29:36;;;;;;;7.82;5.35;;;18.90;64.80;;;;;;5095377;28;20064;-71
2021/06/22 10:32:04;;;;;;;9.60;5.03;;;19.00;64.90;;;;;;5095675;28;20052;-73
2021/06/22 10:34:31;;;;;;;7.45;4.25;;;19.00;64.90;;;;;;5095613;28;20135;-72
2021/06/22 10:37:08;;;;;;;8.95;4.88;;;19.00;65.00;;;;;;5094654;28;20036;-72
2021/06/22 10:39:52;;;;;;;6.72;4.40;;;19.00;65.00;;;;;;5094628;28;20040;-72
2021/06/22 10:42:20;;;;;;;6.93;4.93;;;19.00;65.00;;;;;;5105655;28;20391;-72
2021/06/22 10:44:49;;;;;;;7.80;4.70;;;19.00;65.10;;;;;;5115487;28;20039;-72
2021/06/22 10:47:36;;;;;;;7.43;4.50;;;19.00;65.10;;;;;;5115696;28;20047;-72
2021/06/22 10:50:32;;;;;;;9.05;4.57;;;19.10;65.10;;;;;;5119479;28;20127;-72
2021/06/22 10:53:10;;;;;;;6.47;4.10;;;19.10;65.10;;;;;;5119619;28;20112;-72
2021/06/22 10:55:43;;;;;;;7.30;4.70;;;19.10;65.20;;;;;;5119026;28;20065;-72
2021/06/22 10:58:14;;;;;;;5.95;4.00;;;19.10;65.20;;;;;;5118927;28;20055;-71
2021/06/22 11:00:41;;;;;;;7.35;4.70;;;19.10;65.20;;;;;;5119085;28;20076;-72
2021/06/22 11:03:09;;;;;;;8.05;4.70;;;19.10;65.20;;;;;;5119003;28;20058;-71
2021/06/22 11:05:37;;;;;;;7.20;4.50;;;19.10;65.30;;;;;;5119078;28;20048;-72
2021/06/22 11:08:16;;;;;;;7.70;4.40;;;19.10;65.30;;;;;;5119024;28;20044;-72
2021/06/22 11:10:47;;;;;;;7.57;4.38;;;19.10;65.20;;;;;;5118515;28;20347;-72
2021/06/22 11:13:33;;;;;;;5.65;4.68;;;19.10;65.30;;;;;;5116891;28;20055;-72
2021/06/22 11:16:05;;;;;;;9.48;4.97;;;19.10;65.30;;;;;;5118785;28;20066;-71
2021/06/22 11:18:53;;;;;;;6.33;4.40;;;19.10;65.40;;;;;;5118613;28;20055;-72
2021/06/22 11:21:43;;;;;;;5.75;3.90;;;19.20;65.40;;;;;;5118636;28;20469;-72
2021/06/22 11:24:20;;;;;;;5.63;4.60;;;19.10;65.50;;;;;;5118428;28;20050;-72
2021/06/22 11:27:04;;;;;;;6.30;4.65;;;19.10;65.50;;;;;;5118695;28;20051;-72
2021/06/22 11:29:36;;;;;;;6.28;4.57;;;19.10;65.60;;;;;;5119243;28;20047;-72
2021/06/22 11:32:02;;;;;;;8.77;4.57;;;19.10;65.60;;;;;;5118901;28;20074;-72
2021/06/22 11:34:33;;;;;;;5.93;4.28;;;19.10;65.70;;;;;;5118499;28;20070;-72
2021/06/22 11:37:17;;;;;;;5.85;4.40;;;19.20;65.70;;;;;;5118118;28;20408;-72
2021/06/22 11:39:59;;;;;;;7.55;4.38;;;19.10;65.70;;;;;;5117946;28;20131;-72
2021/06/22 11:42:26;;;;;;;5.03;4.37;;;19.10;65.70;;;;;;5103378;28;20052;-72
2021/06/22 11:45:04;;;;;;;7.32;4.22;;;19.20;65.80;;;;;;5097833;28;20135;-72
2021/06/22 11:47:33;;;;;;;5.90;4.32;;;19.20;65.80;;;;;;5097703;28;20040;-72
2021/06/22 11:50:18;;;;;;;6.30;4.43;;;19.20;65.80;;;;;;5097988;28;20119;-72
2021/06/22 11:52:46;;;;;;;4.78;3.80;;;19.20;65.80;;;;;;5096519;28;20040;-72
2021/06/22 11:55:19;;;;;;;5.00;4.03;;;19.20;65.90;;;;;;5097819;28;20113;-72
2021/06/22 11:57:47;;;;;;;5.80;4.25;;;19.10;65.80;;;;;;5097518;28;20043;-72
2021/06/22 12:00:19;;;;;;;6.55;3.97;;;19.20;65.90;;;;;;5096635;28;20378;-72
2021/06/22 12:03:08;;;;;;;4.78;4.28;;;19.20;66.00;;;;;;5111634;28;20043;-71
2021/06/22 12:05:36;;;;;;;4.60;3.80;;;19.20;65.90;;;;;;5117712;28;20051;-73
2021/06/22 12:08:09;;;;;;;5.43;4.40;;;19.20;66.00;;;;;;5118198;28;20058;-71
2021/06/22 12:10:49;;;;;;;7.32;4.45;;;19.20;66.00;;;;;;5117879;28;20065;-72
2021/06/22 12:13:36;;;;;;;5.45;3.85;;;19.20;66.00;;;;;;5117330;28;20392;-72
2021/06/22 12:16:15;;;;;;;5.72;4.20;;;19.20;66.00;;;;;;5117761;28;20067;-71
2021/06/22 12:18:41;;;;;;;4.50;4.10;;;19.20;66.10;;;;;;5117738;28;20039;-72
2021/06/22 12:21:07;;;;;;;5.30;4.30;;;19.20;66.20;;;;;;5117512;28;20120;-71
2021/06/22 12:23:33;;;;;;;4.38;3.47;;;19.20;66.20;;;;;;5117553;28;20408;-72
2021/06/22 12:25:59;;;;;;;5.22;4.00;;;19.20;66.20;;;;;;5116978;28;20044;-72
2021/06/22 12:28:31;;;;;;;4.93;3.42;;;19.20;66.30;;;;;;5117852;28;20051;-71
2021/06/22 12:30:58;;;;;;;4.72;3.78;;;19.20;66.30;;;;;;5117086;28;20050;-71
2021/06/22 12:34:03;;;;;;;4.15;3.75;;;19.20;66.30;;;;;;5100193;28;20112;-71
2021/06/22 12:36:32;;;;;;;;;;;19.20;66.30;;;;;;5071943;28;20433;-72
2021/06/22 12:38:59;;;;;;;6.03;3.78;;;19.20;66.30;;;;;;5096702;28;19920;-72
2021/06/22 12:41:32;;;;;;;5.70;3.90;;;19.20;66.40;;;;;;5097219;28;20043;-71
2021/06/22 12:44:01;;;;;;;4.68;3.50;;;19.20;66.40;;;;;;5096491;28;20056;-71
2021/06/22 12:46:28;;;;;;;5.35;3.67;;;19.20;66.30;;;;;;5096338;28;20060;-71
2021/06/22 12:49:11;;;;;;;5.45;3.28;;;19.20;66.40;;;;;;5096055;28;20379;-72
2021/06/22 12:51:39;;;;;;;3.40;3.05;;;19.20;66.40;;;;;;5096688;28;20119;-72